Time;durP1;ratioP1;P1;durP2;ratioP2;P2;SDS_P1;SDS_P2;PMS_P1;PMS_P2;Temp;Humidity;BMP_temperature;BMP_pressure;BME280_temperature;BME280_humidity;BME280_pressure;Samples;Min_cycle;Max_cycle;Signal;HPM_P1;HPM_P2
2022/03/15 00:01:58;;;;;;;5.07;2.22;;;17.10;61.40;;;;;;10386494;28;20068;-62
2022/03/15 00:06:59;;;;;;;4.70;2.45;;;17.10;61.50;;;;;;10367917;28;20328;-62
2022/03/15 00:12:01;;;;;;;5.00;2.22;;;17.20;61.10;;;;;;10399371;28;20105;-62
2022/03/15 00:17:04;;;;;;;2.90;1.90;;;17.20;61.20;;;;;;10415179;28;20026;-63
2022/03/15 00:22:05;;;;;;;4.00;2.63;;;17.10;61.30;;;;;;10415741;28;20508;-62
2022/03/15 00:27:06;;;;;;;4.05;2.08;;;17.10;61.50;;;;;;10384662;28;20041;-62
2022/03/15 00:32:08;;;;;;;4.00;2.45;;;17.00;61.60;;;;;;10384599;28;20033;-62
2022/03/15 00:37:09;;;;;;;4.00;2.00;;;16.90;61.60;;;;;;10370141;28;20036;-62
2022/03/15 00:42:11;;;;;;;3.95;1.98;;;17.10;61.30;;;;;;10373823;28;20033;-62
2022/03/15 00:47:11;;;;;;;5.32;1.77;;;17.20;60.70;;;;;;10400027;28;20477;-61
2022/03/15 00:52:12;;;;;;;3.95;2.60;;;17.20;60.70;;;;;;10357640;28;20064;-62
2022/03/15 00:57:13;;;;;;;2.85;2.05;;;17.20;60.80;;;;;;10399955;28;20547;-62
2022/03/15 01:02:13;;;;;;;4.28;2.33;;;17.20;60.90;;;;;;10383095;28;20048;-62
2022/03/15 01:07:14;;;;;;;3.88;1.83;;;17.10;61.10;;;;;;10372611;28;20109;-62
2022/03/15 01:12:15;;;;;;;5.97;3.15;;;17.20;60.60;;;;;;10369235;28;20065;-62
2022/03/15 01:17:16;;;;;;;3.17;1.73;;;17.20;60.70;;;;;;10373302;28;20029;-62
2022/03/15 01:22:16;;;;;;;2.97;1.70;;;17.10;60.70;;;;;;10367431;28;20045;-62
2022/03/15 01:27:20;;;;;;;4.75;1.90;;;17.10;60.90;;;;;;10368092;28;20085;-62
2022/03/15 01:32:20;;;;;;;4.38;1.95;;;17.00;60.90;;;;;;10372705;28;20377;-62
2022/03/15 01:37:21;;;;;;;3.20;1.90;;;17.20;60.60;;;;;;10380922;28;20039;-62
2022/03/15 01:42:22;;;;;;;2.78;1.50;;;17.20;60.30;;;;;;10367969;28;20033;-61
2022/03/15 01:47:23;;;;;;;3.50;1.60;;;17.20;60.20;;;;;;10374593;28;20103;-62
2022/03/15 01:52:24;;;;;;;2.15;1.50;;;17.20;60.10;;;;;;10376644;28;20030;-62
2022/03/15 01:57:24;;;;;;;3.95;1.83;;;17.20;60.20;;;;;;10371862;28;20358;-62
2022/03/15 02:02:25;;;;;;;2.88;2.00;;;17.20;60.20;;;;;;10381219;28;20572;-62
2022/03/15 02:07:26;;;;;;;2.80;1.80;;;17.20;60.10;;;;;;10380801;28;20112;-62
2022/03/15 02:12:27;;;;;;;3.42;1.60;;;17.20;60.20;;;;;;10381500;28;20029;-62
2022/03/15 02:17:29;;;;;;;3.90;2.08;;;17.20;60.20;;;;;;10411578;28;20393;-63
2022/03/15 02:22:30;;;;;;;2.70;1.77;;;17.20;60.70;;;;;;10382096;28;20034;-61
2022/03/15 02:27:30;;;;;;;4.47;2.30;;;17.20;60.00;;;;;;10371279;28;20054;-62
2022/03/15 02:32:31;;;;;;;6.68;1.77;;;17.10;60.00;;;;;;10395625;28;20029;-62
2022/03/15 02:37:32;;;;;;;3.30;1.60;;;17.10;60.20;;;;;;10375092;28;20129;-62
2022/03/15 02:42:33;;;;;;;2.70;1.73;;;17.20;59.90;;;;;;10367596;28;20036;-62
2022/03/15 02:47:34;;;;;;;2.67;1.70;;;17.20;59.90;;;;;;10387358;28;20027;-62
2022/03/15 02:52:34;;;;;;;2.75;1.77;;;17.20;59.70;;;;;;10393387;28;20105;-61
2022/03/15 02:57:35;;;;;;;4.03;1.70;;;17.20;59.90;;;;;;10357381;28;20592;-62
2022/03/15 03:02:36;;;;;;;2.25;1.50;;;17.20;59.80;;;;;;10373786;28;20506;-62
2022/03/15 03:07:38;;;;;;;2.30;1.45;;;17.20;59.80;;;;;;10377800;28;20036;-62
2022/03/15 03:12:41;;;;;;;2.08;1.50;;;17.30;59.40;;;;;;10377648;28;20030;-62
2022/03/15 03:17:42;;;;;;;3.08;1.90;;;17.30;59.30;;;;;;10377657;28;20030;-61
2022/03/15 03:22:42;;;;;;;4.80;1.70;;;17.30;59.20;;;;;;10377383;28;20018;-62
2022/03/15 03:27:43;;;;;;;3.47;1.90;;;17.20;59.50;;;;;;10385949;28;20142;-62
2022/03/15 03:32:44;;;;;;;3.13;1.70;;;17.20;59.40;;;;;;10377465;28;20462;-62
2022/03/15 03:37:44;;;;;;;2.80;1.63;;;17.20;59.30;;;;;;10388279;28;20116;-62
2022/03/15 03:42:45;;;;;;;2.30;1.58;;;17.30;59.30;;;;;;10386191;28;20112;-62
2022/03/15 03:47:46;;;;;;;2.30;1.75;;;17.20;59.40;;;;;;10400948;28;20037;-62
2022/03/15 03:52:46;;;;;;;2.67;1.70;;;17.30;59.20;;;;;;10391576;28;20030;-62
2022/03/15 03:57:47;;;;;;;2.67;1.40;;;17.30;59.30;;;;;;10384082;28;20512;-62
2022/03/15 04:02:48;;;;;;;2.53;1.48;;;17.20;59.20;;;;;;10380721;28;20088;-62
2022/03/15 04:07:49;;;;;;;3.22;1.65;;;17.20;59.30;;;;;;10354199;28;20133;-62
2022/03/15 04:12:50;;;;;;;2.72;1.60;;;17.20;59.10;;;;;;10385573;28;20356;-63
2022/03/15 04:17:51;;;;;;;3.03;1.67;;;17.20;59.00;;;;;;10375192;28;20498;-63
2022/03/15 04:22:52;;;;;;;3.67;2.22;;;17.20;59.20;;;;;;10374901;28;20033;-62
2022/03/15 04:27:56;;;;;;;2.90;1.70;;;17.20;59.00;;;;;;10374619;28;20046;-62
2022/03/15 04:32:58;;;;;;;1.88;1.58;;;17.30;58.80;;;;;;10370735;28;20030;-62
2022/03/15 04:38:00;;;;;;;2.63;1.80;;;17.30;58.70;;;;;;10375029;28;20040;-62
2022/03/15 04:43:01;;;;;;;3.13;1.33;;;17.30;58.80;;;;;;10374520;28;20072;-62
2022/03/15 04:48:02;;;;;;;3.38;1.55;;;17.30;58.80;;;;;;10393124;28;20029;-62
2022/03/15 04:53:03;;;;;;;1.90;1.50;;;17.30;58.70;;;;;;10374859;28;20035;-62
2022/03/15 04:58:04;;;;;;;2.55;1.38;;;17.30;59.30;;;;;;10353499;28;20057;-62
2022/03/15 05:03:04;;;;;;;2.47;1.20;;;17.20;58.70;;;;;;10391846;28;20117;-62
2022/03/15 05:08:05;;;;;;;2.55;1.45;;;17.30;58.50;;;;;;10375363;28;20132;-62
2022/03/15 05:13:07;;;;;;;2.70;1.63;;;17.30;58.70;;;;;;10376222;28;20458;-63
2022/03/15 05:18:07;;;;;;;3.42;1.83;;;17.20;58.80;;;;;;10354852;28;20493;-63
2022/03/15 05:23:08;;;;;;;3.00;1.60;;;17.30;58.60;;;;;;10374403;28;20038;-62
2022/03/15 05:28:09;;;;;;;4.32;1.88;;;17.20;58.50;;;;;;10388221;28;20486;-63
2022/03/15 05:33:10;;;;;;;3.90;2.35;;;17.20;58.70;;;;;;10370896;28;20034;-62
2022/03/15 05:38:11;;;;;;;3.65;2.25;;;17.20;58.50;;;;;;10396487;28;20063;-62
2022/03/15 05:43:12;;;;;;;3.42;1.58;;;17.30;58.50;;;;;;10413169;28;20064;-63
2022/03/15 05:48:13;;;;;;;3.88;2.15;;;17.30;58.30;;;;;;10393615;28;20438;-62
2022/03/15 05:53:14;;;;;;;1.75;1.45;;;17.30;58.30;;;;;;10355446;28;20041;-63
2022/03/15 05:58:15;;;;;;;5.55;2.78;;;17.30;58.40;;;;;;10376999;28;20062;-62
2022/03/15 06:03:16;;;;;;;6.05;2.47;;;17.20;58.90;;;;;;10383536;28;20128;-62
2022/03/15 06:08:17;;;;;;;11.00;1.88;;;17.30;58.80;;;;;;10388132;28;20033;-60
2022/03/15 06:13:18;;;;;;;4.10;2.38;;;17.30;59.40;;;;;;10378870;28;20053;-59
2022/03/15 06:18:18;;;;;;;6.22;2.10;;;17.40;59.90;;;;;;10380706;28;20034;-61
2022/03/15 06:23:21;;;;;;;5.93;2.50;;;17.40;61.60;;;;;;10383069;28;20041;-62
2022/03/15 06:28:22;;;;;;;7.70;2.08;;;17.40;61.30;;;;;;10409998;28;20498;-64
2022/03/15 06:33:23;;;;;;;10.27;2.30;;;17.30;61.30;;;;;;10385513;28;20033;-60
2022/03/15 06:38:24;;;;;;;5.65;2.05;;;17.20;61.70;;;;;;10392949;28;20033;-60
2022/03/15 06:43:25;;;;;;;8.43;2.45;;;17.10;61.90;;;;;;10381615;28;20489;-60
2022/03/15 06:48:25;;;;;;;6.47;2.38;;;17.10;62.20;;;;;;10395335;28;20910;-61
2022/03/15 06:53:26;;;;;;;9.15;2.75;;;17.00;62.40;;;;;;10380336;28;20088;-62
2022/03/15 06:58:27;;;;;;;18.38;3.45;;;16.90;62.80;;;;;;10399906;28;20133;-63
2022/03/15 07:03:28;;;;;;;15.75;3.15;;;16.90;62.00;;;;;;10395370;28;20061;-59
2022/03/15 07:08:30;;;;;;;12.75;4.05;;;16.90;61.90;;;;;;10394733;28;20036;-63
2022/03/15 07:13:31;;;;;;;8.90;3.40;;;16.80;61.80;;;;;;10376552;28;20041;-64
2022/03/15 07:18:31;;;;;;;7.78;3.38;;;16.80;61.80;;;;;;10387821;28;20056;-65
2022/03/15 07:23:32;;;;;;;16.27;3.63;;;16.80;61.80;;;;;;10384925;28;20042;-65
2022/03/15 07:28:33;;;;;;;9.13;3.50;;;16.80;61.70;;;;;;10376087;28;20406;-65
2022/03/15 07:33:34;;;;;;;6.78;3.35;;;16.80;61.60;;;;;;10409168;28;20030;-64
2022/03/15 07:38:34;;;;;;;11.18;3.42;;;16.80;61.10;;;;;;10392815;28;20026;-64
2022/03/15 07:43:35;;;;;;;8.10;3.13;;;17.00;61.20;;;;;;10391863;28;20038;-65
2022/03/15 07:48:36;;;;;;;7.88;3.22;;;17.10;60.70;;;;;;10392777;28;20034;-65
2022/03/15 07:53:37;;;;;;;10.85;3.05;;;17.00;60.70;;;;;;10390325;28;20774;-66
2022/03/15 07:58:37;;;;;;;5.10;2.38;;;17.00;60.70;;;;;;10386038;28;20041;-65
2022/03/15 08:03:38;;;;;;;7.88;3.00;;;17.10;60.40;;;;;;10399384;28;20029;-65
2022/03/15 08:08:39;;;;;;;7.93;2.78;;;17.20;60.10;;;;;;10385971;28;20161;-65
2022/03/15 08:13:39;;;;;;;7.80;3.38;;;17.10;60.10;;;;;;10412254;28;20026;-65
2022/03/15 08:18:40;;;;;;;6.05;2.90;;;17.00;60.30;;;;;;10415158;28;20104;-65
2022/03/15 08:23:41;;;;;;;9.32;2.97;;;16.90;60.50;;;;;;10388405;28;20080;-64
2022/03/15 08:28:42;;;;;;;4.47;2.38;;;16.90;60.60;;;;;;10394917;28;20125;-65
2022/03/15 08:33:44;;;;;;;6.35;2.47;;;17.00;60.20;;;;;;10384031;28;20029;-65
2022/03/15 08:38:45;;;;;;;5.05;2.30;;;17.10;60.00;;;;;;10369004;28;20049;-65
2022/03/15 08:43:46;;;;;;;7.47;2.33;;;17.10;60.10;;;;;;10379823;28;20057;-65
2022/03/15 08:48:47;;;;;;;6.13;2.67;;;17.00;60.00;;;;;;10398776;28;20021;-66
2022/03/15 08:53:47;;;;;;;4.93;2.58;;;17.00;60.10;;;;;;10381343;28;20025;-66
2022/03/15 08:58:48;;;;;;;4.45;2.17;;;17.00;60.30;;;;;;10369991;28;20053;-66
2022/03/15 09:03:49;;;;;;;4.45;2.88;;;17.10;59.60;;;;;;10369553;28;20525;-66
2022/03/15 09:08:49;;;;;;;7.15;2.85;;;17.20;59.40;;;;;;10379197;28;20113;-66
2022/03/15 09:13:50;;;;;;;7.25;2.47;;;17.10;59.50;;;;;;10377547;28;20032;-66
2022/03/15 09:18:51;;;;;;;4.07;2.55;;;17.10;59.60;;;;;;10388940;28;20116;-66
2022/03/15 09:23:52;;;;;;;6.05;2.72;;;17.00;59.70;;;;;;10413846;28;20094;-66
2022/03/15 09:28:53;;;;;;;5.45;2.70;;;17.10;59.50;;;;;;10401871;28;20071;-66
2022/03/15 09:33:53;;;;;;;6.32;2.40;;;17.10;59.30;;;;;;10376484;28;20044;-66
2022/03/15 09:38:56;;;;;;;4.50;2.83;;;17.10;59.30;;;;;;10392868;28;20037;-64
2022/03/15 09:43:58;;;;;;;5.55;2.08;;;17.10;59.50;;;;;;10365438;28;20132;-65
2022/03/15 09:49:01;;;;;;;5.30;2.67;;;17.00;59.50;;;;;;10376775;28;20033;-65
2022/03/15 09:54:05;;;;;;;2.95;1.90;;;17.10;59.30;;;;;;10395702;28;20028;-66
2022/03/15 09:59:19;;;;;;;5.57;2.30;;;17.10;59.20;;;;;;10384542;28;20116;-66
2022/03/15 10:04:22;;;;;;;4.63;2.25;;;17.00;59.40;;;;;;10397198;28;20405;-66
2022/03/15 10:09:24;;;;;;;4.32;2.40;;;17.00;59.60;;;;;;10376432;28;20042;-65
2022/03/15 10:14:25;;;;;;;3.88;2.03;;;17.10;59.20;;;;;;10404987;28;20121;-66
2022/03/15 10:19:27;;;;;;;3.65;2.15;;;17.10;59.10;;;;;;10378500;28;20191;-66
2022/03/15 10:24:29;;;;;;;4.80;2.42;;;17.10;59.30;;;;;;10394947;28;20087;-66
2022/03/15 10:29:31;;;;;;;4.60;2.33;;;17.00;59.40;;;;;;10365264;28;20393;-66
2022/03/15 10:34:31;;;;;;;4.70;1.83;;;17.10;59.30;;;;;;10396328;28;20112;-65
2022/03/15 10:39:32;;;;;;;5.10;2.47;;;17.20;59.00;;;;;;10388199;28;20415;-66
2022/03/15 10:44:37;;;;;;;4.53;2.00;;;17.20;59.10;;;;;;10373448;28;20025;-63
2022/03/15 10:49:54;;;;;;;4.18;3.05;;;17.10;59.40;;;;;;10366559;28;20497;-64
2022/03/15 10:54:55;;;;;;;4.93;1.70;;;17.00;60.20;;;;;;10380238;28;20088;-62
2022/03/15 11:00:05;;;;;;;5.22;2.13;;;16.90;60.90;;;;;;10394348;28;20044;-64
2022/03/15 11:05:06;;;;;;;4.07;1.95;;;16.90;61.40;;;;;;10395866;28;20049;-65
2022/03/15 11:10:13;;;;;;;3.17;1.77;;;16.90;61.50;;;;;;10391988;28;20030;-64
2022/03/15 11:15:15;;;;;;;4.05;2.03;;;16.80;60.80;;;;;;10389563;28;20455;-64
2022/03/15 11:20:16;;;;;;;5.78;2.45;;;16.80;60.60;;;;;;10395072;28;20026;-64
2022/03/15 11:25:20;;;;;;;3.13;1.95;;;16.80;60.70;;;;;;10385740;28;20084;-64
2022/03/15 11:30:21;;;;;;;3.85;2.00;;;16.70;60.70;;;;;;10374226;28;20525;-65
2022/03/15 11:35:23;;;;;;;3.97;1.88;;;16.70;60.90;;;;;;10412401;28;20163;-65
2022/03/15 11:40:24;;;;;;;5.20;2.10;;;16.70;60.70;;;;;;10384535;28;20160;-64
2022/03/15 11:45:43;;;;;;;9.60;2.45;;;16.80;60.70;;;;;;10377696;28;20152;-61
2022/03/15 11:51:24;;;;;;;4.88;1.85;;;16.90;61.60;;;;;;10394001;28;20112;-64
2022/03/15 11:56:25;;;;;;;;;;;16.90;62.10;;;;;;10378852;28;20512;-65
2022/03/15 12:01:25;;;;;;;6.47;1.98;;;16.90;62.50;;;;;;10398192;28;20018;-62
2022/03/15 12:06:31;;;;;;;6.80;2.20;;;16.90;62.30;;;;;;10373206;28;20048;-66
2022/03/15 12:11:39;;;;;;;5.75;1.90;;;16.80;62.00;;;;;;10391959;28;20030;-68
2022/03/15 12:16:41;;;;;;;3.90;1.73;;;16.80;61.90;;;;;;10395421;28;20036;-66
2022/03/15 12:21:49;;;;;;;3.70;1.63;;;17.20;60.40;;;;;;10390868;28;20054;-67
2022/03/15 12:27:02;;;;;;;2.38;1.35;;;17.30;60.10;;;;;;10373341;28;20047;-66
2022/03/15 12:32:11;;;;;;;5.80;2.15;;;17.20;60.50;;;;;;10373811;28;20080;-67
2022/03/15 12:37:12;;;;;;;7.20;2.80;;;17.20;61.70;;;;;;10388606;28;20474;-67
2022/03/15 12:42:15;;;;;;;6.47;2.58;;;17.10;62.70;;;;;;10391610;28;20033;-65
2022/03/15 12:47:24;;;;;;;6.88;1.85;;;17.00;64.60;;;;;;10384353;28;20113;-64
2022/03/15 12:52:35;;;;;;;9.50;2.90;;;17.10;64.90;;;;;;10398334;28;20041;-64
2022/03/15 12:57:36;;;;;;;7.65;3.03;;;17.20;65.90;;;;;;10378009;28;20156;-64
2022/03/15 13:02:39;;;;;;;5.30;2.65;;;17.20;65.70;;;;;;10388637;28;20123;-64
2022/03/15 13:07:41;;;;;;;7.22;2.35;;;17.20;65.80;;;;;;10382359;28;20033;-64
2022/03/15 13:12:43;;;;;;;3.95;2.00;;;17.30;65.40;;;;;;10380085;28;20040;-64
2022/03/15 13:17:53;;;;;;;6.25;2.05;;;17.40;65.30;;;;;;10394030;28;20087;-65
2022/03/15 13:23:06;;;;;;;6.78;2.20;;;17.40;65.10;;;;;;10371440;28;20041;-65
2022/03/15 13:28:21;;;;;;;5.45;2.20;;;17.40;65.00;;;;;;10387879;28;20045;-64
2022/03/15 13:33:27;;;;;;;2.90;1.70;;;17.50;64.70;;;;;;10396360;28;20038;-64
2022/03/15 13:38:30;;;;;;;3.15;1.67;;;17.50;64.70;;;;;;10409859;28;20038;-63
2022/03/15 13:43:32;;;;;;;4.60;1.88;;;17.50;64.70;;;;;;10363816;28;20034;-64
2022/03/15 13:48:39;;;;;;;3.72;1.50;;;17.40;64.60;;;;;;10373616;28;20034;-64
2022/03/15 13:53:44;;;;;;;2.70;1.77;;;17.50;64.60;;;;;;10380006;28;20382;-63
2022/03/15 13:58:59;;;;;;;3.38;1.73;;;17.50;64.40;;;;;;10369795;28;20600;-63
2022/03/15 14:04:12;;;;;;;4.80;1.77;;;17.50;64.20;;;;;;10378395;28;20069;-64
2022/03/15 14:09:28;;;;;;;8.85;2.78;;;17.50;64.10;;;;;;10358308;28;20040;-63
2022/03/15 14:14:29;;;;;;;3.53;2.17;;;17.50;63.90;;;;;;10371546;28;20037;-63
2022/03/15 14:19:30;;;;;;;5.03;2.65;;;17.50;63.60;;;;;;10404245;28;20033;-63
2022/03/15 14:24:32;;;;;;;3.67;2.47;;;17.50;63.50;;;;;;10369500;28;20119;-63
2022/03/15 14:29:36;;;;;;;4.43;2.50;;;17.50;63.40;;;;;;10395381;28;20073;-63
2022/03/15 14:34:41;;;;;;;3.67;1.70;;;17.50;63.20;;;;;;10412366;28;20098;-62
2022/03/15 14:39:46;;;;;;;4.25;1.80;;;17.50;63.30;;;;;;10379917;28;20410;-63
2022/03/15 14:44:47;;;;;;;3.28;1.50;;;17.50;63.30;;;;;;10403163;28;20025;-63
2022/03/15 14:49:50;;;;;;;6.40;2.08;;;17.50;63.20;;;;;;10364619;28;20092;-64
2022/03/15 14:54:50;;;;;;;4.50;1.80;;;17.50;63.30;;;;;;10381156;28;20037;-66
2022/03/15 14:59:53;;;;;;;5.90;2.22;;;17.40;63.20;;;;;;10394851;28;20052;-65
2022/03/15 15:04:55;;;;;;;6.22;2.83;;;17.50;63.20;;;;;;10358464;28;20025;-66
2022/03/15 15:10:00;;;;;;;7.85;2.83;;;17.40;63.20;;;;;;10376386;28;20033;-66
2022/03/15 15:15:02;;;;;;;4.43;1.92;;;17.50;63.80;;;;;;10364055;28;20037;-66
2022/03/15 15:20:04;;;;;;;5.10;2.13;;;17.40;63.20;;;;;;10405135;28;20736;-66
2022/03/15 15:25:06;;;;;;;6.82;2.15;;;17.40;63.20;;;;;;10392613;28;20041;-66
2022/03/15 15:30:07;;;;;;;5.32;1.65;;;17.40;63.20;;;;;;10384385;28;20058;-67
2022/03/15 15:35:10;;;;;;;5.63;1.88;;;17.40;63.20;;;;;;10403956;28;20022;-64
2022/03/15 15:40:12;;;;;;;5.70;1.83;;;17.40;63.20;;;;;;10374737;28;20425;-67
2022/03/15 15:45:13;;;;;;;8.02;2.35;;;17.40;63.00;;;;;;10392817;28;20380;-64
2022/03/15 15:50:15;;;;;;;10.68;2.58;;;17.40;63.10;;;;;;10386037;28;20029;-63
2022/03/15 15:55:17;;;;;;;8.40;2.38;;;17.30;63.10;;;;;;10375683;28;20032;-61
2022/03/15 16:00:19;;;;;;;9.43;3.38;;;17.30;62.70;;;;;;10396899;28;20120;-61
2022/03/15 16:05:20;;;;;;;5.97;2.45;;;17.20;62.10;;;;;;10384764;28;20034;-62
2022/03/15 16:10:22;;;;;;;7.65;2.15;;;17.20;61.70;;;;;;10392994;28;20026;-63
2022/03/15 16:15:24;;;;;;;6.53;2.60;;;17.20;61.40;;;;;;10360112;28;20122;-64
2022/03/15 16:20:27;;;;;;;11.15;3.22;;;17.20;61.20;;;;;;10415973;28;20021;-64
2022/03/15 16:25:27;;;;;;;6.10;2.63;;;17.20;62.90;;;;;;10382223;28;20080;-65
2022/03/15 16:30:28;;;;;;;3.80;2.13;;;17.10;61.70;;;;;;10401406;28;20036;-65
2022/03/15 16:35:29;;;;;;;7.00;2.55;;;17.10;62.00;;;;;;10389267;28;20112;-64
2022/03/15 16:40:30;;;;;;;5.53;1.95;;;17.10;62.30;;;;;;10414084;28;20025;-64
2022/03/15 16:45:33;;;;;;;6.38;3.15;;;17.10;62.50;;;;;;10397599;28;20113;-63
2022/03/15 16:50:34;;;;;;;8.32;2.67;;;17.00;63.40;;;;;;10383470;28;20029;-64
2022/03/15 16:55:46;;;;;;;8.57;2.30;;;17.30;66.00;;;;;;10390928;28;20485;-63
2022/03/15 17:00:47;;;;;;;7.95;2.22;;;17.40;64.70;;;;;;10373765;28;20040;-65
2022/03/15 17:05:48;;;;;;;7.93;3.15;;;17.40;65.40;;;;;;10368987;28;20037;-67
2022/03/15 17:10:49;;;;;;;18.58;4.32;;;17.30;65.40;;;;;;10392231;28;20508;-64
2022/03/15 17:15:53;;;;;;;13.30;2.80;;;17.30;65.30;;;;;;10375930;28;20049;-66
2022/03/15 17:20:55;;;;;;;10.48;2.78;;;17.30;65.70;;;;;;10395806;28;20029;-63
2022/03/15 17:25:58;;;;;;;10.70;2.47;;;17.20;65.70;;;;;;10376555;28;20137;-62
2022/03/15 17:30:59;;;;;;;12.70;3.00;;;17.00;64.80;;;;;;10383781;28;20431;-64
2022/03/15 17:36:01;;;;;;;11.43;3.05;;;16.90;64.80;;;;;;10378352;28;20046;-66
2022/03/15 17:41:03;;;;;;;15.75;3.97;;;16.80;65.50;;;;;;10380984;28;20076;-66
2022/03/15 17:46:07;;;;;;;14.52;3.15;;;17.00;65.50;;;;;;10365190;28;20058;-62
2022/03/15 17:51:10;;;;;;;28.88;4.90;;;17.00;65.30;;;;;;10383735;28;20632;-63
2022/03/15 17:56:12;;;;;;;39.03;5.40;;;17.00;65.40;;;;;;10400992;28;20029;-62
2022/03/15 18:01:13;;;;;;;24.50;4.22;;;17.00;65.20;;;;;;10412784;28;20057;-63
2022/03/15 18:06:14;;;;;;;18.98;3.95;;;17.00;65.60;;;;;;10401175;28;20121;-62
2022/03/15 18:11:15;;;;;;;16.70;5.13;;;16.90;65.40;;;;;;10381811;28;20033;-62
2022/03/15 18:16:23;;;;;;;17.08;4.00;;;16.90;65.20;;;;;;10395839;28;20025;-61
2022/03/15 18:21:29;;;;;;;17.75;4.38;;;16.80;65.10;;;;;;10363548;28;20049;-62
2022/03/15 18:26:30;;;;;;;15.68;4.50;;;16.80;64.90;;;;;;10386474;28;20045;-61
2022/03/15 18:31:32;;;;;;;12.50;4.10;;;16.80;64.80;;;;;;10396587;28;20045;-61
2022/03/15 18:36:33;;;;;;;9.52;3.30;;;16.70;64.70;;;;;;10367019;28;20117;-61
2022/03/15 18:41:34;;;;;;;19.92;4.13;;;16.70;64.60;;;;;;10384981;28;20065;-62
2022/03/15 18:46:40;;;;;;;15.40;4.43;;;16.70;64.70;;;;;;10371003;28;20065;-63
2022/03/15 18:51:43;;;;;;;10.57;3.13;;;16.90;64.80;;;;;;10387444;28;20036;-64
2022/03/15 18:56:47;;;;;;;19.48;4.30;;;16.90;64.70;;;;;;10387267;28;20448;-64
2022/03/15 19:01:48;;;;;;;14.98;3.42;;;16.80;64.70;;;;;;10382617;28;20030;-65
2022/03/15 19:06:48;;;;;;;14.38;4.10;;;16.80;64.80;;;;;;10393483;28;20026;-65
2022/03/15 19:11:49;;;;;;;11.80;4.18;;;16.90;65.50;;;;;;10396975;28;20032;-65
2022/03/15 19:16:50;;;;;;;11.60;3.67;;;17.10;64.60;;;;;;10387069;28;20065;-65
2022/03/15 19:21:53;;;;;;;8.93;3.47;;;17.00;64.50;;;;;;10387787;28;20109;-65
2022/03/15 19:26:54;;;;;;;9.45;3.30;;;17.00;64.70;;;;;;10403816;28;20108;-65
2022/03/15 19:31:55;;;;;;;9.60;3.35;;;16.90;65.40;;;;;;10378545;28;20490;-64
2022/03/15 19:36:55;;;;;;;7.90;2.92;;;16.90;65.60;;;;;;10394161;28;20386;-64
2022/03/15 19:41:57;;;;;;;9.68;4.13;;;16.90;65.70;;;;;;10351953;28;20068;-64
2022/03/15 19:46:57;;;;;;;6.10;2.47;;;16.90;65.80;;;;;;10392341;28;20033;-66
2022/03/15 19:51:58;;;;;;;8.95;2.92;;;16.90;65.80;;;;;;10375094;28;20498;-66
2022/03/15 19:57:00;;;;;;;13.45;3.67;;;16.90;66.00;;;;;;10397100;28;20033;-66
2022/03/15 20:02:02;;;;;;;8.73;3.45;;;16.90;66.00;;;;;;10383544;28;20025;-66
2022/03/15 20:07:03;;;;;;;8.82;3.33;;;16.90;66.20;;;;;;10371223;28;20018;-66
2022/03/15 20:12:06;;;;;;;6.80;2.30;;;16.90;66.30;;;;;;10395120;28;20045;-67
2022/03/15 20:17:07;;;;;;;6.90;2.63;;;16.90;66.40;;;;;;10378877;28;20064;-66
2022/03/15 20:22:09;;;;;;;7.90;2.72;;;16.90;66.30;;;;;;10388079;28;20033;-66
2022/03/15 20:27:09;;;;;;;8.73;2.42;;;16.90;66.40;;;;;;10389545;28;20044;-65
2022/03/15 20:32:10;;;;;;;7.55;2.42;;;16.90;66.60;;;;;;10415454;28;20056;-65
2022/03/15 20:37:11;;;;;;;6.15;2.25;;;16.90;66.60;;;;;;10369802;28;20031;-64
2022/03/15 20:42:12;;;;;;;8.93;2.60;;;16.90;66.70;;;;;;10391542;28;20030;-66
2022/03/15 20:47:15;;;;;;;7.65;2.92;;;16.90;66.70;;;;;;10377329;28;20120;-64
2022/03/15 20:52:17;;;;;;;5.22;2.60;;;16.90;66.50;;;;;;10356100;28;20033;-64
2022/03/15 20:57:18;;;;;;;7.85;2.88;;;16.90;66.60;;;;;;10375764;28;20037;-63
2022/03/15 21:02:22;;;;;;;9.98;2.63;;;16.80;65.70;;;;;;10389536;28;20030;-64
2022/03/15 21:07:23;;;;;;;5.90;3.00;;;16.80;65.50;;;;;;10377748;28;20029;-64
2022/03/15 21:12:24;;;;;;;7.20;3.00;;;16.80;65.30;;;;;;10373845;28;20573;-64
2022/03/15 21:17:24;;;;;;;6.35;2.35;;;16.80;65.00;;;;;;10373656;28;20033;-64
2022/03/15 21:22:29;;;;;;;5.45;3.05;;;17.00;64.70;;;;;;10369293;28;20057;-64
2022/03/15 21:27:30;;;;;;;6.95;2.22;;;17.00;64.50;;;;;;10384440;28;20041;-64
2022/03/15 21:32:31;;;;;;;5.88;1.90;;;17.00;64.00;;;;;;10369017;28;20060;-63
2022/03/15 21:37:32;;;;;;;5.80;2.30;;;17.20;63.20;;;;;;10368809;28;20026;-63
2022/03/15 21:42:34;;;;;;;5.32;2.88;;;17.20;63.10;;;;;;10377263;28;20433;-64
2022/03/15 21:47:38;;;;;;;7.10;2.85;;;17.20;63.20;;;;;;10413376;28;20029;-64
2022/03/15 21:52:40;;;;;;;7.10;2.20;;;17.20;62.70;;;;;;10361551;28;20367;-64
2022/03/15 21:57:41;;;;;;;3.80;2.28;;;17.30;62.60;;;;;;10373746;28;20034;-63
2022/03/15 22:02:42;;;;;;;8.85;2.60;;;17.30;62.50;;;;;;10364971;28;20085;-64
2022/03/15 22:07:43;;;;;;;6.15;2.40;;;17.20;62.70;;;;;;10367127;28;20076;-63
2022/03/15 22:12:44;;;;;;;5.65;2.97;;;17.10;62.70;;;;;;10371285;28;20065;-66
2022/03/15 22:17:50;;;;;;;5.47;2.42;;;17.10;62.80;;;;;;10370901;28;20148;-66
2022/03/15 22:22:57;;;;;;;3.70;2.10;;;17.00;63.00;;;;;;10398089;28;20033;-66
2022/03/15 22:27:59;;;;;;;4.43;2.25;;;17.10;62.60;;;;;;10363384;28;20128;-64
2022/03/15 23:25:54;;;;;;;5.22;2.25;;;17.10;61.50;;;;;;10389802;28;20107;-64
2022/03/15 23:30:55;;;;;;;4.60;2.17;;;17.20;61.10;;;;;;10373486;28;20041;-64
2022/03/15 23:35:59;;;;;;;5.22;2.55;;;17.20;61.00;;;;;;10370972;28;20147;-64
2022/03/15 23:41:00;;;;;;;3.00;1.83;;;17.30;60.60;;;;;;10383752;28;20433;-64
2022/03/15 23:46:01;;;;;;;3.38;2.10;;;17.30;60.70;;;;;;10376626;28;20068;-63
2022/03/15 23:51:02;;;;;;;3.38;1.60;;;17.20;60.70;;;;;;10409218;28;20121;-63
2022/03/15 23:56:03;;;;;;;4.28;2.33;;;17.10;60.90;;;;;;10381645;28;20096;-64
